sensor_id;sensor_type;location;lat;lon;timestamp;P1;P2;P0
74419;PMS5003;62855;50.718;-2.460;2023-06-26T00:02:06;9.98;9.78;
74419;PMS5003;62855;50.718;-2.460;2023-06-26T00:05:06;9.98;9.78;
74419;PMS5003;62855;50.718;-2.460;2023-06-26T00:08:06;10.89;9.78;
74419;PMS5003;62855;50.718;-2.460;2023-06-26T00:11:05;9.98;9.78;
74419;PMS5003;62855;50.718;-2.460;2023-06-26T00:14:05;9.98;9.78;
74419;PMS5003;62855;50.718;-2.460;2023-06-26T00:17:05;9.98;9.78;
74419;PMS5003;62855;50.718;-2.460;2023-06-26T00:20:06;9.98;9.78;
74419;PMS5003;62855;50.718;-2.460;2023-06-26T00:23:06;9.08;7.82;
74419;PMS5003;62855;50.718;-2.460;2023-06-26T00:26:06;9.08;8.80;
74419;PMS5003;62855;50.718;-2.460;2023-06-26T00:29:06;10.89;9.78;
74419;PMS5003;62855;50.718;-2.460;2023-06-26T00:32:06;10.89;9.78;
74419;PMS5003;62855;50.718;-2.460;2023-06-26T00:35:06;9.98;9.78;
74419;PMS5003;62855;50.718;-2.460;2023-06-26T00:38:06;9.98;9.78;
74419;PMS5003;62855;50.718;-2.460;2023-06-26T00:41:05;9.98;9.78;
74419;PMS5003;62855;50.718;-2.460;2023-06-26T00:44:06;11.80;10.76;
74419;PMS5003;62855;50.718;-2.460;2023-06-26T00:47:06;12.71;11.73;
74419;PMS5003;62855;50.718;-2.460;2023-06-26T00:50:06;12.71;11.73;
74419;PMS5003;62855;50.718;-2.460;2023-06-26T00:53:06;11.80;12.71;
74419;PMS5003;62855;50.718;-2.460;2023-06-26T00:56:06;11.80;11.73;
74419;PMS5003;62855;50.718;-2.460;2023-06-26T00:59:06;11.80;11.73;
74419;PMS5003;62855;50.718;-2.460;2023-06-26T01:02:05;11.80;12.71;
74419;PMS5003;62855;50.718;-2.460;2023-06-26T01:05:06;12.71;12.71;
74419;PMS5003;62855;50.718;-2.460;2023-06-26T01:08:06;11.80;12.71;
74419;PMS5003;62855;50.718;-2.460;2023-06-26T01:11:05;11.80;12.71;
74419;PMS5003;62855;50.718;-2.460;2023-06-26T01:14:06;10.89;11.73;
74419;PMS5003;62855;50.718;-2.460;2023-06-26T01:17:06;10.89;11.73;
74419;PMS5003;62855;50.718;-2.460;2023-06-26T01:20:06;11.80;12.71;
74419;PMS5003;62855;50.718;-2.460;2023-06-26T01:23:07;11.80;12.71;
74419;PMS5003;62855;50.718;-2.460;2023-06-26T01:26:10;11.80;12.71;
74419;PMS5003;62855;50.718;-2.460;2023-06-26T01:29:06;11.80;12.71;
74419;PMS5003;62855;50.718;-2.460;2023-06-26T01:32:06;12.71;11.73;
74419;PMS5003;62855;50.718;-2.460;2023-06-26T01:35:06;11.80;10.76;
74419;PMS5003;62855;50.718;-2.460;2023-06-26T01:41:05;12.71;11.73;
74419;PMS5003;62855;50.718;-2.460;2023-06-26T01:44:11;13.61;11.73;
74419;PMS5003;62855;50.718;-2.460;2023-06-26T01:47:06;12.71;11.73;
74419;PMS5003;62855;50.718;-2.460;2023-06-26T01:50:07;13.61;11.73;
74419;PMS5003;62855;50.718;-2.460;2023-06-26T01:53:07;12.71;11.73;
74419;PMS5003;62855;50.718;-2.460;2023-06-26T01:56:07;12.71;11.73;
74419;PMS5003;62855;50.718;-2.460;2023-06-26T01:59:06;12.71;11.73;
74419;PMS5003;62855;50.718;-2.460;2023-06-26T02:02:06;12.71;12.71;
74419;PMS5003;62855;50.718;-2.460;2023-06-26T02:05:06;11.80;12.71;
74419;PMS5003;62855;50.718;-2.460;2023-06-26T02:08:07;13.61;12.71;
74419;PMS5003;62855;50.718;-2.460;2023-06-26T02:11:06;14.52;13.69;
74419;PMS5003;62855;50.718;-2.460;2023-06-26T02:14:06;14.52;11.73;
74419;PMS5003;62855;50.718;-2.460;2023-06-26T02:17:06;13.61;10.76;
74419;PMS5003;62855;50.718;-2.460;2023-06-26T02:20:06;13.61;10.76;
74419;PMS5003;62855;50.718;-2.460;2023-06-26T02:23:06;12.71;9.78;
74419;PMS5003;62855;50.718;-2.460;2023-06-26T02:26:06;12.71;10.76;
74419;PMS5003;62855;50.718;-2.460;2023-06-26T02:29:06;13.61;11.73;
74419;PMS5003;62855;50.718;-2.460;2023-06-26T02:32:06;12.71;10.76;
74419;PMS5003;62855;50.718;-2.460;2023-06-26T02:35:06;12.71;11.73;
74419;PMS5003;62855;50.718;-2.460;2023-06-26T02:38:05;12.71;12.71;
74419;PMS5003;62855;50.718;-2.460;2023-06-26T02:41:05;13.61;12.71;
74419;PMS5003;62855;50.718;-2.460;2023-06-26T02:44:06;12.71;13.69;
74419;PMS5003;62855;50.718;-2.460;2023-06-26T02:47:05;12.71;13.69;
74419;PMS5003;62855;50.718;-2.460;2023-06-26T02:50:06;13.61;13.69;
74419;PMS5003;62855;50.718;-2.460;2023-06-26T02:53:06;13.61;13.69;
74419;PMS5003;62855;50.718;-2.460;2023-06-26T02:56:06;12.71;13.69;
74419;PMS5003;62855;50.718;-2.460;2023-06-26T02:59:06;12.71;12.71;
74419;PMS5003;62855;50.718;-2.460;2023-06-26T03:02:06;12.71;13.69;
74419;PMS5003;62855;50.718;-2.460;2023-06-26T03:05:06;13.61;13.69;
74419;PMS5003;62855;50.718;-2.460;2023-06-26T03:08:05;13.61;14.67;
74419;PMS5003;62855;50.718;-2.460;2023-06-26T03:11:06;12.71;12.71;
74419;PMS5003;62855;50.718;-2.460;2023-06-26T03:14:06;12.71;13.69;
74419;PMS5003;62855;50.718;-2.460;2023-06-26T03:17:06;13.61;13.69;
74419;PMS5003;62855;50.718;-2.460;2023-06-26T03:20:06;14.52;13.69;
74419;PMS5003;62855;50.718;-2.460;2023-06-26T03:23:06;13.61;13.69;
74419;PMS5003;62855;50.718;-2.460;2023-06-26T03:26:06;14.52;13.69;
74419;PMS5003;62855;50.718;-2.460;2023-06-26T03:29:06;14.52;14.67;
74419;PMS5003;62855;50.718;-2.460;2023-06-26T03:32:05;12.71;12.71;
74419;PMS5003;62855;50.718;-2.460;2023-06-26T03:35:06;13.61;12.71;
74419;PMS5003;62855;50.718;-2.460;2023-06-26T03:38:05;13.61;11.73;
74419;PMS5003;62855;50.718;-2.460;2023-06-26T03:41:05;14.52;12.71;
74419;PMS5003;62855;50.718;-2.460;2023-06-26T03:44:05;16.34;11.73;
74419;PMS5003;62855;50.718;-2.460;2023-06-26T03:47:05;16.34;12.71;
74419;PMS5003;62855;50.718;-2.460;2023-06-26T03:50:06;16.34;13.69;
74419;PMS5003;62855;50.718;-2.460;2023-06-26T03:53:05;17.24;13.69;
74419;PMS5003;62855;50.718;-2.460;2023-06-26T03:56:05;16.34;13.69;
74419;PMS5003;62855;50.718;-2.460;2023-06-26T03:59:05;16.34;13.69;
74419;PMS5003;62855;50.718;-2.460;2023-06-26T04:02:06;15.43;12.71;
74419;PMS5003;62855;50.718;-2.460;2023-06-26T04:05:06;15.43;12.71;
74419;PMS5003;62855;50.718;-2.460;2023-06-26T04:08:06;14.52;12.71;
74419;PMS5003;62855;50.718;-2.460;2023-06-26T04:11:06;13.61;12.71;
74419;PMS5003;62855;50.718;-2.460;2023-06-26T04:14:06;12.71;12.71;
74419;PMS5003;62855;50.718;-2.460;2023-06-26T04:17:06;12.71;11.73;
74419;PMS5003;62855;50.718;-2.460;2023-06-26T04:20:06;12.71;11.73;
74419;PMS5003;62855;50.718;-2.460;2023-06-26T04:23:06;10.89;11.73;
74419;PMS5003;62855;50.718;-2.460;2023-06-26T04:26:06;11.80;12.71;
74419;PMS5003;62855;50.718;-2.460;2023-06-26T04:29:05;12.71;13.69;
74419;PMS5003;62855;50.718;-2.460;2023-06-26T04:32:06;12.71;13.69;
74419;PMS5003;62855;50.718;-2.460;2023-06-26T04:35:06;12.71;13.69;
74419;PMS5003;62855;50.718;-2.460;2023-06-26T04:38:06;13.61;14.67;
74419;PMS5003;62855;50.718;-2.460;2023-06-26T04:41:06;12.71;13.69;
74419;PMS5003;62855;50.718;-2.460;2023-06-26T04:44:06;13.61;14.67;
74419;PMS5003;62855;50.718;-2.460;2023-06-26T04:47:06;13.61;14.67;
74419;PMS5003;62855;50.718;-2.460;2023-06-26T04:50:06;13.61;13.69;
74419;PMS5003;62855;50.718;-2.460;2023-06-26T04:53:06;13.61;13.69;
74419;PMS5003;62855;50.718;-2.460;2023-06-26T04:56:06;12.71;12.71;
74419;PMS5003;62855;50.718;-2.460;2023-06-26T04:59:06;12.71;12.71;
74419;PMS5003;62855;50.718;-2.460;2023-06-26T05:02:06;11.80;11.73;
74419;PMS5003;62855;50.718;-2.460;2023-06-26T05:05:06;12.71;12.71;
74419;PMS5003;62855;50.718;-2.460;2023-06-26T05:08:14;11.80;11.73;
74419;PMS5003;62855;50.718;-2.460;2023-06-26T05:11:06;11.80;11.73;
74419;PMS5003;62855;50.718;-2.460;2023-06-26T05:14:06;11.80;11.73;
74419;PMS5003;62855;50.718;-2.460;2023-06-26T05:17:06;10.89;11.73;
74419;PMS5003;62855;50.718;-2.460;2023-06-26T05:20:06;9.98;10.76;
74419;PMS5003;62855;50.718;-2.460;2023-06-26T05:23:06;12.71;12.71;
74419;PMS5003;62855;50.718;-2.460;2023-06-26T05:26:06;12.71;12.71;
74419;PMS5003;62855;50.718;-2.460;2023-06-26T05:29:06;12.71;13.69;
74419;PMS5003;62855;50.718;-2.460;2023-06-26T05:32:06;13.61;12.71;
74419;PMS5003;62855;50.718;-2.460;2023-06-26T05:35:06;12.71;11.73;
74419;PMS5003;62855;50.718;-2.460;2023-06-26T05:38:06;12.71;12.71;
74419;PMS5003;62855;50.718;-2.460;2023-06-26T05:41:06;12.71;11.73;
74419;PMS5003;62855;50.718;-2.460;2023-06-26T05:44:05;11.80;11.73;
74419;PMS5003;62855;50.718;-2.460;2023-06-26T05:47:06;11.80;11.73;
74419;PMS5003;62855;50.718;-2.460;2023-06-26T05:50:07;11.80;10.76;
74419;PMS5003;62855;50.718;-2.460;2023-06-26T05:53:06;10.89;10.76;
74419;PMS5003;62855;50.718;-2.460;2023-06-26T05:56:06;9.08;9.78;
74419;PMS5003;62855;50.718;-2.460;2023-06-26T05:59:06;9.98;9.78;
74419;PMS5003;62855;50.718;-2.460;2023-06-26T06:02:06;9.08;9.78;
74419;PMS5003;62855;50.718;-2.460;2023-06-26T06:05:06;9.98;10.76;
74419;PMS5003;62855;50.718;-2.460;2023-06-26T06:08:06;9.98;10.76;
74419;PMS5003;62855;50.718;-2.460;2023-06-26T06:11:06;10.89;11.73;
74419;PMS5003;62855;50.718;-2.460;2023-06-26T06:14:05;9.98;10.76;
74419;PMS5003;62855;50.718;-2.460;2023-06-26T06:17:06;11.80;12.71;
74419;PMS5003;62855;50.718;-2.460;2023-06-26T06:20:06;9.98;10.76;
74419;PMS5003;62855;50.718;-2.460;2023-06-26T06:23:06;10.89;11.73;
74419;PMS5003;62855;50.718;-2.460;2023-06-26T06:26:06;10.89;11.73;
74419;PMS5003;62855;50.718;-2.460;2023-06-26T06:29:06;10.89;11.73;
74419;PMS5003;62855;50.718;-2.460;2023-06-26T06:32:06;10.89;11.73;
74419;PMS5003;62855;50.718;-2.460;2023-06-26T06:35:06;10.89;11.73;
74419;PMS5003;62855;50.718;-2.460;2023-06-26T06:38:05;11.80;12.71;
74419;PMS5003;62855;50.718;-2.460;2023-06-26T06:41:05;11.80;12.71;
74419;PMS5003;62855;50.718;-2.460;2023-06-26T06:44:06;12.71;13.69;
74419;PMS5003;62855;50.718;-2.460;2023-06-26T06:47:06;10.89;11.73;
74419;PMS5003;62855;50.718;-2.460;2023-06-26T06:50:06;12.71;13.69;
74419;PMS5003;62855;50.718;-2.460;2023-06-26T06:53:06;13.61;13.69;
74419;PMS5003;62855;50.718;-2.460;2023-06-26T06:56:05;14.52;13.69;
74419;PMS5003;62855;50.718;-2.460;2023-06-26T06:59:06;14.52;13.69;
74419;PMS5003;62855;50.718;-2.460;2023-06-26T07:02:06;14.52;13.69;
74419;PMS5003;62855;50.718;-2.460;2023-06-26T07:05:06;12.71;12.71;
74419;PMS5003;62855;50.718;-2.460;2023-06-26T07:08:06;13.61;12.71;
74419;PMS5003;62855;50.718;-2.460;2023-06-26T07:11:06;13.61;12.71;
74419;PMS5003;62855;50.718;-2.460;2023-06-26T07:14:07;13.61;12.71;
74419;PMS5003;62855;50.718;-2.460;2023-06-26T07:17:06;13.61;12.71;
74419;PMS5003;62855;50.718;-2.460;2023-06-26T07:20:06;12.71;12.71;
74419;PMS5003;62855;50.718;-2.460;2023-06-26T07:23:06;13.61;13.69;
74419;PMS5003;62855;50.718;-2.460;2023-06-26T07:26:06;13.61;13.69;
74419;PMS5003;62855;50.718;-2.460;2023-06-26T07:29:05;13.61;13.69;
74419;PMS5003;62855;50.718;-2.460;2023-06-26T07:32:06;12.71;12.71;
74419;PMS5003;62855;50.718;-2.460;2023-06-26T07:35:05;14.52;12.71;
74419;PMS5003;62855;50.718;-2.460;2023-06-26T07:38:06;17.24;15.65;
74419;PMS5003;62855;50.718;-2.460;2023-06-26T07:41:06;16.34;14.67;
74419;PMS5003;62855;50.718;-2.460;2023-06-26T07:44:06;19.06;15.65;
74419;PMS5003;62855;50.718;-2.460;2023-06-26T07:47:06;18.15;14.67;
74419;PMS5003;62855;50.718;-2.460;2023-06-26T07:50:06;17.24;14.67;
74419;PMS5003;62855;50.718;-2.460;2023-06-26T07:53:06;17.24;14.67;
74419;PMS5003;62855;50.718;-2.460;2023-06-26T07:56:06;16.34;14.67;
74419;PMS5003;62855;50.718;-2.460;2023-06-26T07:59:06;15.43;13.69;
74419;PMS5003;62855;50.718;-2.460;2023-06-26T08:02:06;16.34;14.67;
74419;PMS5003;62855;50.718;-2.460;2023-06-26T08:05:06;15.43;14.67;
74419;PMS5003;62855;50.718;-2.460;2023-06-26T08:08:06;13.61;13.69;
74419;PMS5003;62855;50.718;-2.460;2023-06-26T08:11:05;12.71;12.71;
74419;PMS5003;62855;50.718;-2.460;2023-06-26T08:14:05;11.80;11.73;
74419;PMS5003;62855;50.718;-2.460;2023-06-26T08:17:06;10.89;11.73;
74419;PMS5003;62855;50.718;-2.460;2023-06-26T08:20:06;10.89;11.73;
74419;PMS5003;62855;50.718;-2.460;2023-06-26T08:23:06;11.80;12.71;
74419;PMS5003;62855;50.718;-2.460;2023-06-26T08:26:06;12.71;13.69;
74419;PMS5003;62855;50.718;-2.460;2023-06-26T08:29:06;12.71;13.69;
74419;PMS5003;62855;50.718;-2.460;2023-06-26T08:32:06;12.71;13.69;
74419;PMS5003;62855;50.718;-2.460;2023-06-26T08:35:06;13.61;14.67;
74419;PMS5003;62855;50.718;-2.460;2023-06-26T08:38:05;14.52;14.67;
74419;PMS5003;62855;50.718;-2.460;2023-06-26T08:41:05;12.71;13.69;
74419;PMS5003;62855;50.718;-2.460;2023-06-26T08:44:05;13.61;14.67;
74419;PMS5003;62855;50.718;-2.460;2023-06-26T08:47:06;14.52;14.67;
74419;PMS5003;62855;50.718;-2.460;2023-06-26T08:50:07;14.52;14.67;
74419;PMS5003;62855;50.718;-2.460;2023-06-26T08:53:08;13.61;14.67;
74419;PMS5003;62855;50.718;-2.460;2023-06-26T08:56:06;13.61;14.67;
74419;PMS5003;62855;50.718;-2.460;2023-06-26T08:59:06;15.43;15.65;
74419;PMS5003;62855;50.718;-2.460;2023-06-26T09:02:05;14.52;15.65;
74419;PMS5003;62855;50.718;-2.460;2023-06-26T09:05:06;13.61;13.69;
74419;PMS5003;62855;50.718;-2.460;2023-06-26T09:08:06;12.71;13.69;
74419;PMS5003;62855;50.718;-2.460;2023-06-26T09:11:06;12.71;13.69;
74419;PMS5003;62855;50.718;-2.460;2023-06-26T09:14:06;12.71;12.71;
74419;PMS5003;62855;50.718;-2.460;2023-06-26T09:17:05;14.52;13.69;
74419;PMS5003;62855;50.718;-2.460;2023-06-26T09:20:06;15.43;14.67;
74419;PMS5003;62855;50.718;-2.460;2023-06-26T09:23:06;18.15;15.65;
74419;PMS5003;62855;50.718;-2.460;2023-06-26T09:26:05;19.97;17.60;
74419;PMS5003;62855;50.718;-2.460;2023-06-26T09:29:06;19.06;16.62;
74419;PMS5003;62855;50.718;-2.460;2023-06-26T09:32:07;17.24;15.65;
74419;PMS5003;62855;50.718;-2.460;2023-06-26T09:35:05;17.24;16.62;
74419;PMS5003;62855;50.718;-2.460;2023-06-26T09:38:07;16.34;15.65;
74419;PMS5003;62855;50.718;-2.460;2023-06-26T09:41:06;15.43;15.65;
74419;PMS5003;62855;50.718;-2.460;2023-06-26T09:44:06;14.52;14.67;
74419;PMS5003;62855;50.718;-2.460;2023-06-26T09:47:06;14.52;14.67;
74419;PMS5003;62855;50.718;-2.460;2023-06-26T09:50:08;13.61;13.69;
74419;PMS5003;62855;50.718;-2.460;2023-06-26T09:53:07;12.71;12.71;
74419;PMS5003;62855;50.718;-2.460;2023-06-26T09:56:06;11.80;12.71;
74419;PMS5003;62855;50.718;-2.460;2023-06-26T09:59:06;11.80;11.73;
74419;PMS5003;62855;50.718;-2.460;2023-06-26T10:02:06;10.89;11.73;
74419;PMS5003;62855;50.718;-2.460;2023-06-26T10:05:06;11.80;10.76;
74419;PMS5003;62855;50.718;-2.460;2023-06-26T10:08:06;11.80;10.76;
74419;PMS5003;62855;50.718;-2.460;2023-06-26T10:11:06;11.80;11.73;
74419;PMS5003;62855;50.718;-2.460;2023-06-26T10:14:06;11.80;11.73;
74419;PMS5003;62855;50.718;-2.460;2023-06-26T10:17:07;11.80;10.76;
74419;PMS5003;62855;50.718;-2.460;2023-06-26T10:20:06;11.80;11.73;
74419;PMS5003;62855;50.718;-2.460;2023-06-26T10:23:06;11.80;11.73;
74419;PMS5003;62855;50.718;-2.460;2023-06-26T10:26:06;11.80;11.73;
74419;PMS5003;62855;50.718;-2.460;2023-06-26T10:29:06;11.80;11.73;
74419;PMS5003;62855;50.718;-2.460;2023-06-26T10:32:06;11.80;11.73;
74419;PMS5003;62855;50.718;-2.460;2023-06-26T10:35:06;11.80;11.73;
74419;PMS5003;62855;50.718;-2.460;2023-06-26T10:38:06;11.80;11.73;
74419;PMS5003;62855;50.718;-2.460;2023-06-26T10:41:10;11.80;11.73;
74419;PMS5003;62855;50.718;-2.460;2023-06-26T10:44:07;11.80;11.73;
74419;PMS5003;62855;50.718;-2.460;2023-06-26T10:47:06;13.61;12.71;
74419;PMS5003;62855;50.718;-2.460;2023-06-26T10:53:12;18.15;15.65;
74419;PMS5003;62855;50.718;-2.460;2023-06-26T10:56:06;19.06;15.65;
74419;PMS5003;62855;50.718;-2.460;2023-06-26T10:59:11;19.06;16.62;
74419;PMS5003;62855;50.718;-2.460;2023-06-26T11:02:06;19.06;17.60;
74419;PMS5003;62855;50.718;-2.460;2023-06-26T11:05:06;19.06;16.62;
74419;PMS5003;62855;50.718;-2.460;2023-06-26T11:08:06;17.24;16.62;
74419;PMS5003;62855;50.718;-2.460;2023-06-26T11:11:06;17.24;16.62;
74419;PMS5003;62855;50.718;-2.460;2023-06-26T11:14:06;16.34;16.62;
74419;PMS5003;62855;50.718;-2.460;2023-06-26T11:17:06;17.24;16.62;
74419;PMS5003;62855;50.718;-2.460;2023-06-26T11:20:06;16.34;16.62;
74419;PMS5003;62855;50.718;-2.460;2023-06-26T11:23:06;15.43;15.65;
74419;PMS5003;62855;50.718;-2.460;2023-06-26T11:26:14;14.52;15.65;
74419;PMS5003;62855;50.718;-2.460;2023-06-26T11:29:06;13.61;14.67;
74419;PMS5003;62855;50.718;-2.460;2023-06-26T11:32:06;14.52;15.65;
74419;PMS5003;62855;50.718;-2.460;2023-06-26T11:35:06;14.52;15.65;
74419;PMS5003;62855;50.718;-2.460;2023-06-26T11:38:06;13.61;14.67;
74419;PMS5003;62855;50.718;-2.460;2023-06-26T11:41:05;12.71;13.69;
74419;PMS5003;62855;50.718;-2.460;2023-06-26T11:44:06;11.80;12.71;
74419;PMS5003;62855;50.718;-2.460;2023-06-26T11:47:06;10.89;11.73;
74419;PMS5003;62855;50.718;-2.460;2023-06-26T11:50:05;10.89;11.73;
74419;PMS5003;62855;50.718;-2.460;2023-06-26T11:53:06;10.89;11.73;
74419;PMS5003;62855;50.718;-2.460;2023-06-26T11:56:07;10.89;11.73;
74419;PMS5003;62855;50.718;-2.460;2023-06-26T11:59:06;11.80;11.73;
74419;PMS5003;62855;50.718;-2.460;2023-06-26T12:02:06;9.98;10.76;
74419;PMS5003;62855;50.718;-2.460;2023-06-26T12:05:06;9.98;10.76;
74419;PMS5003;62855;50.718;-2.460;2023-06-26T12:08:06;10.89;10.76;
74419;PMS5003;62855;50.718;-2.460;2023-06-26T12:11:05;11.80;11.73;
74419;PMS5003;62855;50.718;-2.460;2023-06-26T12:14:06;11.80;11.73;
74419;PMS5003;62855;50.718;-2.460;2023-06-26T12:17:08;10.89;10.76;
74419;PMS5003;62855;50.718;-2.460;2023-06-26T12:20:16;11.80;12.71;
74419;PMS5003;62855;50.718;-2.460;2023-06-26T12:23:11;12.71;12.71;
74419;PMS5003;62855;50.718;-2.460;2023-06-26T12:29:07;11.80;11.73;
74419;PMS5003;62855;50.718;-2.460;2023-06-26T12:32:08;12.71;12.71;
74419;PMS5003;62855;50.718;-2.460;2023-06-26T12:36:09;12.71;13.69;
74419;PMS5003;62855;50.718;-2.460;2023-06-26T12:39:08;12.71;12.71;
74419;PMS5003;62855;50.718;-2.460;2023-06-26T12:42:06;12.71;12.71;
74419;PMS5003;62855;50.718;-2.460;2023-06-26T12:45:10;13.61;13.69;
74419;PMS5003;62855;50.718;-2.460;2023-06-26T12:48:07;13.61;13.69;
74419;PMS5003;62855;50.718;-2.460;2023-06-26T12:51:09;14.52;13.69;
74419;PMS5003;62855;50.718;-2.460;2023-06-26T12:54:05;14.52;14.67;
74419;PMS5003;62855;50.718;-2.460;2023-06-26T12:57:06;14.52;14.67;
74419;PMS5003;62855;50.718;-2.460;2023-06-26T13:00:07;14.52;14.67;
74419;PMS5003;62855;50.718;-2.460;2023-06-26T13:03:06;12.71;12.71;
74419;PMS5003;62855;50.718;-2.460;2023-06-26T13:06:06;13.61;14.67;
74419;PMS5003;62855;50.718;-2.460;2023-06-26T13:09:06;13.61;14.67;
74419;PMS5003;62855;50.718;-2.460;2023-06-26T13:12:06;13.61;13.69;
74419;PMS5003;62855;50.718;-2.460;2023-06-26T13:15:06;11.80;11.73;
74419;PMS5003;62855;50.718;-2.460;2023-06-26T13:18:06;10.89;11.73;
74419;PMS5003;62855;50.718;-2.460;2023-06-26T13:21:06;10.89;11.73;
74419;PMS5003;62855;50.718;-2.460;2023-06-26T13:24:06;9.98;10.76;
74419;PMS5003;62855;50.718;-2.460;2023-06-26T13:27:06;9.08;9.78;
74419;PMS5003;62855;50.718;-2.460;2023-06-26T13:30:07;9.98;10.76;
74419;PMS5003;62855;50.718;-2.460;2023-06-26T13:33:06;9.98;10.76;
74419;PMS5003;62855;50.718;-2.460;2023-06-26T13:36:06;9.98;10.76;
74419;PMS5003;62855;50.718;-2.460;2023-06-26T13:39:06;9.98;10.76;
74419;PMS5003;62855;50.718;-2.460;2023-06-26T13:42:06;10.89;11.73;
74419;PMS5003;62855;50.718;-2.460;2023-06-26T13:45:06;10.89;11.73;
74419;PMS5003;62855;50.718;-2.460;2023-06-26T13:48:06;11.80;12.71;
74419;PMS5003;62855;50.718;-2.460;2023-06-26T13:51:06;11.80;12.71;
74419;PMS5003;62855;50.718;-2.460;2023-06-26T13:54:06;12.71;13.69;
74419;PMS5003;62855;50.718;-2.460;2023-06-26T13:57:06;11.80;12.71;
74419;PMS5003;62855;50.718;-2.460;2023-06-26T14:00:07;11.80;12.71;
74419;PMS5003;62855;50.718;-2.460;2023-06-26T14:03:06;11.80;12.71;
74419;PMS5003;62855;50.718;-2.460;2023-06-26T14:06:06;10.89;11.73;
74419;PMS5003;62855;50.718;-2.460;2023-06-26T14:09:06;11.80;12.71;
74419;PMS5003;62855;50.718;-2.460;2023-06-26T14:12:06;10.89;11.73;
74419;PMS5003;62855;50.718;-2.460;2023-06-26T14:15:06;11.80;12.71;
74419;PMS5003;62855;50.718;-2.460;2023-06-26T14:18:06;11.80;11.73;
74419;PMS5003;62855;50.718;-2.460;2023-06-26T14:21:06;10.89;10.76;
74419;PMS5003;62855;50.718;-2.460;2023-06-26T14:24:05;10.89;10.76;
74419;PMS5003;62855;50.718;-2.460;2023-06-26T14:27:06;10.89;10.76;
74419;PMS5003;62855;50.718;-2.460;2023-06-26T14:30:06;11.80;10.76;
74419;PMS5003;62855;50.718;-2.460;2023-06-26T14:33:05;11.80;10.76;
74419;PMS5003;62855;50.718;-2.460;2023-06-26T14:36:05;10.89;9.78;
74419;PMS5003;62855;50.718;-2.460;2023-06-26T14:39:05;9.98;9.78;
74419;PMS5003;62855;50.718;-2.460;2023-06-26T14:42:06;10.89;9.78;
74419;PMS5003;62855;50.718;-2.460;2023-06-26T14:45:06;10.89;10.76;
74419;PMS5003;62855;50.718;-2.460;2023-06-26T14:48:06;9.98;9.78;
74419;PMS5003;62855;50.718;-2.460;2023-06-26T14:51:06;9.98;9.78;
74419;PMS5003;62855;50.718;-2.460;2023-06-26T14:54:06;9.98;10.76;
74419;PMS5003;62855;50.718;-2.460;2023-06-26T14:57:06;9.98;9.78;
74419;PMS5003;62855;50.718;-2.460;2023-06-26T15:00:06;9.98;9.78;
74419;PMS5003;62855;50.718;-2.460;2023-06-26T15:03:06;9.98;10.76;
74419;PMS5003;62855;50.718;-2.460;2023-06-26T15:06:06;9.98;10.76;
74419;PMS5003;62855;50.718;-2.460;2023-06-26T15:09:06;9.98;9.78;
74419;PMS5003;62855;50.718;-2.460;2023-06-26T15:12:07;9.98;9.78;
74419;PMS5003;62855;50.718;-2.460;2023-06-26T15:15:06;9.98;10.76;
74419;PMS5003;62855;50.718;-2.460;2023-06-26T15:18:05;10.89;10.76;
74419;PMS5003;62855;50.718;-2.460;2023-06-26T15:21:05;9.98;10.76;
74419;PMS5003;62855;50.718;-2.460;2023-06-26T15:24:06;10.89;10.76;
74419;PMS5003;62855;50.718;-2.460;2023-06-26T15:27:06;10.89;10.76;
74419;PMS5003;62855;50.718;-2.460;2023-06-26T15:30:06;10.89;11.73;
74419;PMS5003;62855;50.718;-2.460;2023-06-26T15:33:06;9.98;10.76;
74419;PMS5003;62855;50.718;-2.460;2023-06-26T15:36:06;10.89;11.73;
74419;PMS5003;62855;50.718;-2.460;2023-06-26T15:39:06;10.89;11.73;
74419;PMS5003;62855;50.718;-2.460;2023-06-26T15:42:05;10.89;11.73;
74419;PMS5003;62855;50.718;-2.460;2023-06-26T15:45:06;9.08;9.78;
74419;PMS5003;62855;50.718;-2.460;2023-06-26T15:48:06;9.98;10.76;
74419;PMS5003;62855;50.718;-2.460;2023-06-26T15:51:06;10.89;11.73;
74419;PMS5003;62855;50.718;-2.460;2023-06-26T15:54:06;9.98;10.76;
74419;PMS5003;62855;50.718;-2.460;2023-06-26T15:57:06;12.71;12.71;
74419;PMS5003;62855;50.718;-2.460;2023-06-26T16:00:06;12.71;11.73;
74419;PMS5003;62855;50.718;-2.460;2023-06-26T16:03:05;12.71;11.73;
74419;PMS5003;62855;50.718;-2.460;2023-06-26T16:06:06;11.80;11.73;
74419;PMS5003;62855;50.718;-2.460;2023-06-26T16:09:06;12.71;12.71;
74419;PMS5003;62855;50.718;-2.460;2023-06-26T16:12:06;11.80;11.73;
74419;PMS5003;62855;50.718;-2.460;2023-06-26T16:15:06;12.71;12.71;
74419;PMS5003;62855;50.718;-2.460;2023-06-26T16:18:06;11.80;11.73;
74419;PMS5003;62855;50.718;-2.460;2023-06-26T16:21:05;11.80;11.73;
74419;PMS5003;62855;50.718;-2.460;2023-06-26T16:24:06;10.89;10.76;
74419;PMS5003;62855;50.718;-2.460;2023-06-26T16:27:06;9.98;9.78;
74419;PMS5003;62855;50.718;-2.460;2023-06-26T16:30:07;9.98;9.78;
74419;PMS5003;62855;50.718;-2.460;2023-06-26T16:33:06;10.89;10.76;
74419;PMS5003;62855;50.718;-2.460;2023-06-26T16:36:06;10.89;10.76;
74419;PMS5003;62855;50.718;-2.460;2023-06-26T16:39:06;11.80;11.73;
74419;PMS5003;62855;50.718;-2.460;2023-06-26T16:42:06;10.89;11.73;
74419;PMS5003;62855;50.718;-2.460;2023-06-26T16:45:07;9.98;9.78;
74419;PMS5003;62855;50.718;-2.460;2023-06-26T16:48:06;10.89;10.76;
74419;PMS5003;62855;50.718;-2.460;2023-06-26T16:51:06;11.80;11.73;
74419;PMS5003;62855;50.718;-2.460;2023-06-26T16:54:06;11.80;11.73;
74419;PMS5003;62855;50.718;-2.460;2023-06-26T16:57:06;11.80;11.73;
74419;PMS5003;62855;50.718;-2.460;2023-06-26T17:00:06;11.80;12.71;
74419;PMS5003;62855;50.718;-2.460;2023-06-26T17:03:06;10.89;10.76;
74419;PMS5003;62855;50.718;-2.460;2023-06-26T17:06:05;10.89;10.76;
74419;PMS5003;62855;50.718;-2.460;2023-06-26T17:09:05;9.98;9.78;
74419;PMS5003;62855;50.718;-2.460;2023-06-26T17:12:06;10.89;10.76;
74419;PMS5003;62855;50.718;-2.460;2023-06-26T17:15:07;10.89;10.76;
74419;PMS5003;62855;50.718;-2.460;2023-06-26T17:18:06;10.89;10.76;
74419;PMS5003;62855;50.718;-2.460;2023-06-26T17:21:05;9.98;9.78;
74419;PMS5003;62855;50.718;-2.460;2023-06-26T17:24:05;10.89;10.76;
74419;PMS5003;62855;50.718;-2.460;2023-06-26T17:27:07;10.89;10.76;
74419;PMS5003;62855;50.718;-2.460;2023-06-26T17:30:06;10.89;10.76;
74419;PMS5003;62855;50.718;-2.460;2023-06-26T17:33:06;10.89;11.73;
74419;PMS5003;62855;50.718;-2.460;2023-06-26T17:36:06;11.80;11.73;
74419;PMS5003;62855;50.718;-2.460;2023-06-26T17:39:06;12.71;12.71;
74419;PMS5003;62855;50.718;-2.460;2023-06-26T17:42:06;11.80;11.73;
74419;PMS5003;62855;50.718;-2.460;2023-06-26T17:45:06;11.80;11.73;
74419;PMS5003;62855;50.718;-2.460;2023-06-26T17:48:06;13.61;12.71;
74419;PMS5003;62855;50.718;-2.460;2023-06-26T17:51:05;13.61;12.71;
74419;PMS5003;62855;50.718;-2.460;2023-06-26T17:54:06;12.71;11.73;
74419;PMS5003;62855;50.718;-2.460;2023-06-26T17:57:06;11.80;11.73;
74419;PMS5003;62855;50.718;-2.460;2023-06-26T18:00:06;14.52;13.69;
74419;PMS5003;62855;50.718;-2.460;2023-06-26T18:03:06;14.52;13.69;